createdAt,value
2023-02-17T00:01:26.483Z,4.63
2023-02-17T00:03:54.350Z,4.64
2023-02-17T00:06:25.157Z,4.65
2023-02-17T00:08:53.124Z,4.67
2023-02-17T00:11:21.681Z,4.68
2023-02-17T00:13:48.967Z,4.69
2023-02-17T00:16:21.899Z,4.69
2023-02-17T00:18:54.057Z,4.71
2023-02-17T00:21:24.006Z,4.72
2023-02-17T00:23:52.038Z,4.74
2023-02-17T00:26:20.421Z,4.75
2023-02-17T00:28:49.052Z,4.71
2023-02-17T00:31:19.043Z,4.75
2023-02-17T00:33:46.651Z,4.72
2023-02-17T00:36:18.044Z,4.76
2023-02-17T00:38:45.808Z,4.76
2023-02-17T00:41:13.173Z,4.72
2023-02-17T00:43:40.561Z,4.75
2023-02-17T00:46:08.227Z,4.70
2023-02-17T00:48:35.817Z,4.74
2023-02-17T00:51:03.761Z,4.73
2023-02-17T00:53:31.319Z,4.73
2023-02-17T00:56:01.889Z,4.68
2023-02-17T00:58:29.333Z,4.70
2023-02-17T01:00:58.329Z,4.70
2023-02-17T01:03:27.044Z,4.68
2023-02-17T01:05:55.928Z,4.66
2023-02-17T01:08:24.690Z,4.70
2023-02-17T01:10:53.329Z,4.72
2023-02-17T01:13:20.718Z,4.72
2023-02-17T01:15:52.614Z,4.72
2023-02-17T01:18:23.791Z,4.72
2023-02-17T01:20:52.383Z,4.73
2023-02-17T01:23:19.704Z,4.75
2023-02-17T01:25:47.732Z,4.74
2023-02-17T01:28:20.788Z,4.74
2023-02-17T01:30:48.905Z,4.75
2023-02-17T01:33:16.344Z,4.75
2023-02-17T01:35:43.870Z,4.72
2023-02-17T01:38:12.969Z,4.73
2023-02-17T01:40:47.674Z,4.76
2023-02-17T01:43:18.243Z,4.74
2023-02-17T01:45:52.773Z,4.73
2023-02-17T01:48:25.664Z,4.74
2023-02-17T01:51:03.279Z,4.73
2023-02-17T01:53:37.505Z,4.74
2023-02-17T01:56:06.440Z,4.74
2023-02-17T01:58:34.622Z,4.73
2023-02-17T02:01:05.451Z,4.74
2023-02-17T02:03:35.175Z,4.74
2023-02-17T02:06:07.616Z,4.74
2023-02-17T02:08:44.987Z,4.75
2023-02-17T02:11:12.624Z,4.75
2023-02-17T02:13:40.180Z,4.71
2023-02-17T02:16:22.093Z,4.71
2023-02-17T02:19:04.844Z,4.73
2023-02-17T02:21:48.958Z,4.74
2023-02-17T02:24:40.523Z,4.74
2023-02-17T02:27:26.534Z,4.74
2023-02-17T02:30:02.691Z,4.74
2023-02-17T02:32:46.608Z,4.73
2023-02-17T02:35:21.577Z,4.73
2023-02-17T02:38:04.927Z,4.73
2023-02-17T02:40:37.792Z,4.72
2023-02-17T02:43:06.023Z,4.65
2023-02-17T02:45:35.184Z,4.68
2023-02-17T02:48:02.948Z,4.73
2023-02-17T02:50:30.940Z,4.72
2023-02-17T02:53:11.306Z,4.68
2023-02-17T02:56:06.871Z,4.67
2023-02-17T02:59:01.545Z,4.71
2023-02-17T03:01:52.178Z,4.72
2023-02-17T03:04:26.854Z,4.68
2023-02-17T03:07:02.234Z,4.68
2023-02-17T03:09:30.326Z,4.72
2023-02-17T03:11:58.675Z,4.72
2023-02-17T03:14:27.612Z,4.68
2023-02-17T03:16:55.798Z,4.68
2023-02-17T03:19:26.310Z,4.72
2023-02-17T03:22:06.034Z,4.71
2023-02-17T03:24:35.139Z,4.71
2023-02-17T03:27:02.502Z,4.70
2023-02-17T03:29:30.010Z,4.66
2023-02-17T03:31:57.719Z,4.70
2023-02-17T03:34:25.151Z,4.64
2023-02-17T03:36:52.394Z,4.68
2023-02-17T03:39:19.682Z,4.69
2023-02-17T03:41:48.464Z,4.69
2023-02-17T03:44:15.754Z,4.69
2023-02-17T03:46:43.008Z,4.68
2023-02-17T03:49:12.157Z,4.68
2023-02-17T03:51:40.441Z,4.67
2023-02-17T03:54:07.953Z,4.68
2023-02-17T03:56:35.164Z,4.69
2023-02-17T03:59:02.575Z,4.65
2023-02-17T04:01:30.392Z,4.65
2023-02-17T04:03:57.848Z,4.66
2023-02-17T04:06:25.346Z,4.68
2023-02-17T04:08:52.776Z,4.67
2023-02-17T04:11:20.111Z,4.67
2023-02-17T04:13:47.655Z,4.67
2023-02-17T04:16:14.818Z,4.62
2023-02-17T04:18:42.169Z,4.66
2023-02-17T04:21:09.557Z,4.67
2023-02-17T04:23:37.446Z,4.53
2023-02-17T04:26:07.345Z,4.66
2023-02-17T04:28:37.868Z,4.63
2023-02-17T04:31:05.637Z,4.63
2023-02-17T04:33:33.128Z,4.66
2023-02-17T04:36:00.437Z,4.65
2023-02-17T04:38:29.290Z,4.64
2023-02-17T04:40:57.634Z,4.67
2023-02-17T04:43:26.548Z,4.67
2023-02-17T04:45:54.857Z,4.64
2023-02-17T04:48:22.945Z,4.69
2023-02-17T04:50:50.510Z,4.63
2023-02-17T04:53:18.531Z,4.66
2023-02-17T04:55:49.756Z,4.64
2023-02-17T04:58:17.430Z,4.66
2023-02-17T05:00:46.463Z,4.65
2023-02-17T05:03:13.903Z,4.68
2023-02-17T05:05:41.395Z,4.67
2023-02-17T05:08:08.849Z,4.68
2023-02-17T05:10:36.314Z,4.68
2023-02-17T05:13:03.669Z,4.65
2023-02-17T05:15:33.089Z,4.68
2023-02-17T05:18:01.778Z,4.67
2023-02-17T05:20:29.441Z,4.66
2023-02-17T05:22:56.789Z,4.68
2023-02-17T05:25:24.190Z,4.66
2023-02-17T05:27:51.381Z,4.64
2023-02-17T05:30:19.005Z,4.59
2023-02-17T05:32:46.679Z,4.63
2023-02-17T05:35:13.974Z,4.62
2023-02-17T05:37:41.387Z,4.60
2023-02-17T05:40:09.368Z,4.61
2023-02-17T05:42:36.851Z,4.60
2023-02-17T05:45:05.095Z,4.59
2023-02-17T05:47:32.584Z,4.59
2023-02-17T05:49:59.716Z,4.54
2023-02-17T05:52:27.189Z,4.60
2023-02-17T05:54:54.549Z,4.59
2023-02-17T05:57:21.797Z,4.58
2023-02-17T05:59:49.104Z,4.54
2023-02-17T06:02:16.524Z,4.62
2023-02-17T06:04:43.993Z,4.59
2023-02-17T06:07:11.532Z,4.64
2023-02-17T06:09:38.944Z,4.60
2023-02-17T06:12:06.553Z,4.63
2023-02-17T06:14:33.990Z,4.64
2023-02-17T06:17:04.202Z,4.65
2023-02-17T06:19:31.458Z,4.61
2023-02-17T06:21:58.790Z,4.62
2023-02-17T06:24:26.249Z,4.66
2023-02-17T06:26:53.458Z,4.65
2023-02-17T06:29:20.660Z,4.67
2023-02-17T06:31:48.047Z,4.65
2023-02-17T06:34:15.566Z,4.68
2023-02-17T06:36:43.094Z,4.71
2023-02-17T06:39:10.702Z,4.72
2023-02-17T06:41:37.977Z,4.72
2023-02-17T06:44:05.381Z,4.71
2023-02-17T06:46:32.723Z,4.75
2023-02-17T06:49:01.680Z,4.72
2023-02-17T06:51:29.422Z,4.77
2023-02-17T06:53:57.084Z,4.72
2023-02-17T06:56:24.422Z,4.77
2023-02-17T06:58:52.292Z,4.75
2023-02-17T07:01:23.399Z,4.75
2023-02-17T07:03:50.985Z,4.74
2023-02-17T07:06:18.657Z,4.76
2023-02-17T07:08:46.497Z,4.76
2023-02-17T07:11:15.179Z,4.79
2023-02-17T07:13:43.024Z,4.79
2023-02-17T07:16:12.359Z,4.80
2023-02-17T07:18:40.254Z,4.81
2023-02-17T07:21:09.320Z,4.82
2023-02-17T07:23:37.420Z,4.81
2023-02-17T07:26:10.158Z,4.82
2023-02-17T07:28:39.579Z,4.84
2023-02-17T07:31:09.681Z,4.85
2023-02-17T07:33:37.751Z,4.85
2023-02-17T07:36:13.177Z,4.87
2023-02-17T07:38:41.071Z,4.87
2023-02-17T07:41:16.937Z,4.87
2023-02-17T07:43:45.259Z,4.87
2023-02-17T07:46:13.370Z,4.87
2023-02-17T07:48:41.496Z,4.85
2023-02-17T07:51:11.697Z,4.82
2023-02-17T07:53:39.170Z,4.77
2023-02-17T07:56:09.966Z,4.72
2023-02-17T07:58:39.591Z,4.78
2023-02-17T08:01:12.697Z,4.79
2023-02-17T08:03:40.598Z,4.79
2023-02-17T08:06:19.173Z,4.81
2023-02-17T08:09:06.297Z,4.84
2023-02-17T08:11:52.551Z,4.82
2023-02-17T08:14:22.845Z,4.88
2023-02-17T08:16:50.689Z,4.83
2023-02-17T08:19:18.340Z,4.89
2023-02-17T08:21:46.275Z,4.95
2023-02-17T08:24:13.910Z,4.95
2023-02-17T08:26:41.156Z,4.96
2023-02-17T08:29:08.860Z,5.02
2023-02-17T08:31:37.768Z,5.03
2023-02-17T08:34:08.320Z,5.07
2023-02-17T08:36:37.772Z,5.09
2023-02-17T08:39:07.040Z,5.09
2023-02-17T08:41:37.460Z,5.01
2023-02-17T08:44:11.838Z,5.10
2023-02-17T08:46:39.397Z,5.11
2023-02-17T08:49:07.605Z,5.10
2023-02-17T08:51:35.427Z,5.10
2023-02-17T08:54:06.664Z,5.17
2023-02-17T08:56:35.126Z,5.21
2023-02-17T08:59:02.864Z,5.23
2023-02-17T09:01:31.001Z,5.23
2023-02-17T09:04:00.167Z,5.25
2023-02-17T09:06:39.652Z,5.26
2023-02-17T09:09:09.461Z,5.32
2023-02-17T09:11:36.963Z,5.36
2023-02-17T09:14:05.049Z,5.38
2023-02-17T09:16:32.443Z,5.42
2023-02-17T09:18:59.763Z,5.43
2023-02-17T09:21:27.114Z,5.45
2023-02-17T09:23:54.632Z,5.45
2023-02-17T09:26:22.466Z,5.48
2023-02-17T09:28:50.293Z,5.47
2023-02-17T09:31:20.547Z,5.49
2023-02-17T09:33:49.347Z,5.47
2023-02-17T09:36:20.507Z,5.50
2023-02-17T09:38:48.462Z,5.47
2023-02-17T09:41:43.532Z,5.46
2023-02-17T09:44:41.473Z,5.48
2023-02-17T09:47:15.671Z,5.45
2023-02-17T09:49:57.670Z,5.49
2023-02-17T09:52:36.311Z,5.48
2023-02-17T09:55:13.950Z,5.48
2023-02-17T09:57:51.880Z,5.46
2023-02-17T10:00:29.721Z,5.49
2023-02-17T10:03:25.810Z,5.43
2023-02-17T10:06:30.816Z,5.47
2023-02-17T10:09:23.167Z,5.45
2023-02-17T10:12:21.073Z,5.49
2023-02-17T10:15:25.607Z,5.51
2023-02-17T10:18:05.007Z,5.51
2023-02-17T10:20:36.870Z,5.36
2023-02-17T10:23:30.421Z,5.56
2023-02-17T10:26:14.722Z,5.58
2023-02-17T10:28:52.176Z,5.64
2023-02-17T10:32:22.572Z,5.67
2023-02-17T10:35:11.520Z,5.70
2023-02-17T10:37:48.663Z,5.72
2023-02-17T10:40:25.680Z,5.78
2023-02-17T10:43:01.908Z,5.76
2023-02-17T10:45:38.095Z,5.78
2023-02-17T10:48:16.446Z,5.86
2023-02-17T10:50:46.532Z,5.87
2023-02-17T10:53:31.836Z,5.89
2023-02-17T10:56:02.666Z,5.92
2023-02-17T10:58:35.835Z,5.95
2023-02-17T11:01:05.667Z,6.00
2023-02-17T11:03:34.487Z,6.05
2023-02-17T11:06:04.869Z,6.05
2023-02-17T11:08:41.329Z,6.12
2023-02-17T11:11:27.100Z,6.14
2023-02-17T11:14:09.948Z,6.14
2023-02-17T11:16:47.462Z,6.14
2023-02-17T11:19:40.958Z,6.16
2023-02-17T11:22:41.051Z,6.18
2023-02-17T11:25:25.938Z,6.19
2023-02-17T11:27:59.635Z,6.19
2023-02-17T11:30:29.152Z,6.25
2023-02-17T11:32:56.958Z,6.25
2023-02-17T11:35:29.861Z,6.24
2023-02-17T11:38:25.977Z,6.32
2023-02-17T11:40:59.530Z,6.35
2023-02-17T11:43:29.142Z,6.33
2023-02-17T11:46:19.947Z,6.41
2023-02-17T11:49:09.075Z,6.43
2023-02-17T11:52:14.806Z,6.44
2023-02-17T11:55:09.356Z,6.44
2023-02-17T11:57:45.700Z,6.44
2023-02-17T12:00:20.259Z,6.41
2023-02-17T12:03:36.619Z,6.46
2023-02-17T12:06:43.197Z,6.47
2023-02-17T12:09:55.706Z,6.41
2023-02-17T12:12:40.995Z,6.47
2023-02-17T12:15:50.112Z,6.47
2023-02-17T12:18:34.728Z,6.49
2023-02-17T12:21:19.876Z,6.51
2023-02-17T12:24:31.680Z,6.51
2023-02-17T12:27:09.301Z,6.50
2023-02-17T12:30:07.906Z,6.52
2023-02-17T12:33:08.418Z,6.53
2023-02-17T12:35:53.374Z,6.48
2023-02-17T12:38:46.982Z,6.55
2023-02-17T12:41:23.372Z,6.56
2023-02-17T12:43:58.890Z,6.58
2023-02-17T12:46:33.029Z,6.60
2023-02-17T12:49:07.668Z,6.62
2023-02-17T12:52:11.310Z,6.62
2023-02-17T12:54:45.750Z,6.65
2023-02-17T12:57:13.563Z,6.65
2023-02-17T12:59:47.388Z,6.66
2023-02-17T13:02:21.670Z,6.67
2023-02-17T13:04:57.896Z,6.65
2023-02-17T13:08:07.742Z,6.72
2023-02-17T13:10:37.728Z,6.74
2023-02-17T13:13:07.136Z,6.76
2023-02-17T13:15:38.646Z,6.72
2023-02-17T13:18:30.223Z,6.79
2023-02-17T13:21:20.831Z,6.81
2023-02-17T13:24:09.242Z,6.83
2023-02-17T13:26:46.457Z,6.85
2023-02-17T13:29:25.599Z,6.85
2023-02-17T13:31:59.149Z,6.85
2023-02-17T13:34:36.684Z,6.87
2023-02-17T13:37:17.979Z,6.90
2023-02-17T13:39:46.299Z,6.88
2023-02-17T13:42:32.035Z,6.95
2023-02-17T13:44:59.903Z,6.97
2023-02-17T13:47:37.615Z,6.98
2023-02-17T13:50:06.123Z,6.99
2023-02-17T13:52:34.196Z,6.99
2023-02-17T13:55:05.188Z,7.04
2023-02-17T13:57:34.694Z,7.06
2023-02-17T14:00:20.809Z,7.05
2023-02-17T14:02:55.167Z,7.08
2023-02-17T14:05:30.996Z,7.06
2023-02-17T14:08:05.697Z,7.12
2023-02-17T14:10:33.631Z,7.14
2023-02-17T14:13:01.183Z,7.16
2023-02-17T14:15:29.802Z,7.14
2023-02-17T14:17:57.375Z,7.16
2023-02-17T14:20:43.026Z,7.18
2023-02-17T14:23:13.259Z,7.20
2023-02-17T14:25:41.823Z,7.17
2023-02-17T14:28:27.498Z,7.19
2023-02-17T14:30:54.999Z,7.20
2023-02-17T14:33:25.955Z,7.20
2023-02-17T14:36:06.543Z,7.21
2023-02-17T14:38:37.953Z,7.15
2023-02-17T14:41:06.847Z,7.19
2023-02-17T14:43:34.323Z,7.25
2023-02-17T14:46:01.840Z,7.19
2023-02-17T14:48:29.175Z,7.25
2023-02-17T14:50:59.544Z,7.25
2023-02-17T14:53:40.741Z,7.26
2023-02-17T14:56:15.543Z,7.28
2023-02-17T14:58:43.424Z,7.27
2023-02-17T15:01:14.127Z,7.28
2023-02-17T15:03:41.569Z,7.29
2023-02-17T15:06:18.422Z,7.29
2023-02-17T15:08:48.085Z,7.30
2023-02-17T15:11:26.645Z,7.32
2023-02-17T15:13:54.269Z,7.33
2023-02-17T15:16:21.597Z,7.29
2023-02-17T15:18:51.220Z,7.33
2023-02-17T15:21:27.817Z,7.35
2023-02-17T15:23:57.107Z,7.34
2023-02-17T15:26:25.343Z,7.37
2023-02-17T15:28:53.782Z,7.37
2023-02-17T15:31:21.924Z,7.37
2023-02-17T15:33:58.271Z,7.37
2023-02-17T15:36:27.512Z,7.39
2023-02-17T15:38:56.832Z,7.40
2023-02-17T15:41:26.642Z,7.42
2023-02-17T15:43:58.076Z,7.37
2023-02-17T15:46:33.148Z,7.46
2023-02-17T15:49:01.512Z,7.46
2023-02-17T15:51:29.432Z,7.44
2023-02-17T15:53:57.053Z,7.49
2023-02-17T15:56:30.840Z,7.51
2023-02-17T15:59:05.099Z,7.54
2023-02-17T16:01:34.761Z,7.52
2023-02-17T16:04:03.779Z,7.53
2023-02-17T16:06:31.680Z,7.60
2023-02-17T16:09:00.173Z,7.62
2023-02-17T16:11:28.484Z,7.61
2023-02-17T16:13:57.693Z,7.66
2023-02-17T16:16:30.087Z,7.67
2023-02-17T16:18:58.350Z,7.71
2023-02-17T16:21:26.889Z,7.73
2023-02-17T16:24:00.922Z,7.76
2023-02-17T16:26:34.183Z,7.79
2023-02-17T16:29:04.932Z,7.80
2023-02-17T16:31:33.124Z,7.81
2023-02-17T16:34:01.103Z,7.83
2023-02-17T16:36:34.424Z,7.85
2023-02-17T16:39:11.339Z,7.86
2023-02-17T16:41:39.886Z,7.83
2023-02-17T16:44:08.812Z,7.89
2023-02-17T16:46:37.815Z,7.90
2023-02-17T16:49:24.190Z,7.92
2023-02-17T16:51:52.985Z,7.92
2023-02-17T16:54:20.944Z,7.98
2023-02-17T16:56:51.503Z,7.94
2023-02-17T16:59:22.785Z,8.00
2023-02-17T17:01:53.623Z,7.99
2023-02-17T17:04:22.996Z,8.00
2023-02-17T17:06:53.020Z,8.01
2023-02-17T17:09:26.192Z,8.08
2023-02-17T17:11:54.310Z,8.10
2023-02-17T17:14:22.066Z,8.11
2023-02-17T17:16:58.272Z,8.06
2023-02-17T17:19:26.685Z,8.15
2023-02-17T17:21:54.730Z,8.08
2023-02-17T17:24:23.053Z,8.12
2023-02-17T17:26:52.280Z,8.18
2023-02-17T17:29:21.352Z,8.20
2023-02-17T17:31:49.468Z,8.20
2023-02-17T17:34:17.612Z,8.19
2023-02-17T17:36:48.092Z,8.20
2023-02-17T17:39:17.359Z,8.24
2023-02-17T17:41:46.363Z,8.27
2023-02-17T17:44:15.102Z,8.23
2023-02-17T17:46:43.853Z,8.27
2023-02-17T17:49:15.705Z,8.29
2023-02-17T17:51:44.212Z,8.32
2023-02-17T17:54:12.672Z,8.31
2023-02-17T17:56:46.061Z,8.35
2023-02-17T17:59:15.427Z,8.35
2023-02-17T18:01:45.555Z,8.34
2023-02-17T18:04:14.570Z,8.38
2023-02-17T18:06:46.838Z,8.40
2023-02-17T18:09:32.111Z,8.42
2023-02-17T18:12:08.146Z,8.45
2023-02-17T18:14:38.807Z,8.47
2023-02-17T18:17:09.803Z,8.48
2023-02-17T18:19:38.833Z,8.49
2023-02-17T18:22:07.945Z,8.52
2023-02-17T18:24:35.905Z,8.51
2023-02-17T18:27:03.957Z,8.55
2023-02-17T18:29:32.068Z,8.57
2023-02-17T18:32:00.655Z,8.56
2023-02-17T18:34:28.687Z,8.59
2023-02-17T18:36:56.630Z,8.61
2023-02-17T18:39:24.929Z,8.64
2023-02-17T18:41:52.706Z,8.65
2023-02-17T18:44:20.629Z,8.65
2023-02-17T18:46:49.058Z,8.67
2023-02-17T18:49:17.400Z,8.66
2023-02-17T18:51:45.488Z,8.69
2023-02-17T18:54:13.793Z,8.73
2023-02-17T18:56:41.908Z,8.73
2023-02-17T18:59:09.965Z,8.77
2023-02-17T19:01:40.433Z,8.79
2023-02-17T19:04:10.277Z,8.82
2023-02-17T19:06:38.275Z,8.81
2023-02-17T19:09:06.778Z,8.87
2023-02-17T19:11:35.730Z,8.90
2023-02-17T19:14:04.204Z,8.91
2023-02-17T19:16:32.943Z,8.91
2023-02-17T19:19:02.029Z,8.92
2023-02-17T19:21:30.124Z,8.86
2023-02-17T19:23:58.003Z,8.93
2023-02-17T19:26:26.142Z,8.88
2023-02-17T19:28:54.476Z,8.88
2023-02-17T19:31:22.705Z,8.84
2023-02-17T19:33:51.062Z,8.82
2023-02-17T19:36:21.815Z,8.82
2023-02-17T19:38:51.484Z,8.83
2023-02-17T19:41:20.526Z,8.82
2023-02-17T19:43:48.956Z,8.80
2023-02-17T19:46:20.235Z,8.80
2023-02-17T19:48:48.417Z,8.84
2023-02-17T19:51:17.158Z,8.78
2023-02-17T19:53:45.266Z,8.80
2023-02-17T19:56:16.379Z,8.76
2023-02-17T19:58:46.160Z,8.71
2023-02-17T20:01:23.405Z,8.62
2023-02-17T20:03:52.770Z,8.48
2023-02-17T20:06:27.087Z,8.36
2023-02-17T20:09:06.757Z,8.29
2023-02-17T20:11:35.006Z,8.23
2023-02-17T20:14:04.109Z,8.14
2023-02-17T20:16:32.777Z,8.15
2023-02-17T20:19:03.058Z,8.14
2023-02-17T20:21:32.630Z,8.12
2023-02-17T20:24:00.803Z,8.07
2023-02-17T20:26:32.240Z,8.06
2023-02-17T20:29:00.951Z,8.00
2023-02-17T20:31:29.408Z,8.07
2023-02-17T20:33:57.461Z,8.07
2023-02-17T20:36:25.681Z,8.07
2023-02-17T20:38:53.808Z,8.07
2023-02-17T20:41:24.048Z,8.04
2023-02-17T20:43:52.929Z,7.99
2023-02-17T20:46:27.455Z,7.92
2023-02-17T20:48:55.877Z,7.89
2023-02-17T20:51:24.085Z,7.85
2023-02-17T20:53:52.314Z,7.84
2023-02-17T20:56:22.991Z,7.76
2023-02-17T20:58:51.081Z,7.73
2023-02-17T21:01:18.446Z,7.69
2023-02-17T21:03:45.888Z,7.66
2023-02-17T21:06:23.194Z,7.63
2023-02-17T21:08:53.011Z,7.57
2023-02-17T21:11:20.615Z,7.55
2023-02-17T21:13:48.161Z,7.53
2023-02-17T21:16:17.840Z,7.59
2023-02-17T21:18:46.958Z,7.59
2023-02-17T21:21:15.524Z,7.60
2023-02-17T21:23:43.148Z,7.58
2023-02-17T21:26:13.286Z,7.57
2023-02-17T21:28:40.901Z,7.48
2023-02-17T21:31:08.360Z,7.47
2023-02-17T21:33:42.075Z,7.49
2023-02-17T21:36:11.580Z,7.46
2023-02-17T21:38:39.383Z,7.45
2023-02-17T21:41:11.312Z,7.43
2023-02-17T21:43:57.874Z,7.39
2023-02-17T21:46:26.548Z,7.36
2023-02-17T21:48:53.859Z,7.36
2023-02-17T21:51:21.295Z,7.31
2023-02-17T21:53:48.800Z,7.27
2023-02-17T21:56:16.769Z,7.26
2023-02-17T21:58:52.248Z,7.20
2023-02-17T22:01:21.339Z,7.16
2023-02-17T22:03:48.667Z,7.08
2023-02-17T22:06:22.703Z,7.05
2023-02-17T22:08:50.053Z,7.05
2023-02-17T22:11:23.322Z,7.00
2023-02-17T22:13:54.751Z,6.94
2023-02-17T22:16:22.654Z,6.90
2023-02-17T22:18:50.487Z,6.88
2023-02-17T22:21:18.519Z,6.85
2023-02-17T22:23:46.056Z,6.79
2023-02-17T22:26:17.226Z,6.75
2023-02-17T22:28:44.504Z,6.79
2023-02-17T22:31:21.183Z,6.76
2023-02-17T22:33:49.374Z,6.72
2023-02-17T22:36:23.163Z,6.71
2023-02-17T22:38:52.897Z,6.67
2023-02-17T22:41:23.098Z,6.66
2023-02-17T22:43:51.417Z,6.63
2023-02-17T22:46:22.902Z,6.60
2023-02-17T22:48:52.726Z,6.64
2023-02-17T22:51:23.152Z,6.64
2023-02-17T22:53:51.062Z,6.63
2023-02-17T22:56:19.290Z,6.57
2023-02-17T22:58:47.029Z,6.58
2023-02-17T23:01:19.603Z,6.54
2023-02-17T23:03:52.923Z,6.53
2023-02-17T23:06:26.853Z,6.50
2023-02-17T23:08:54.744Z,6.49
2023-02-17T23:11:44.314Z,6.52
2023-02-17T23:14:13.622Z,6.46
2023-02-17T23:16:41.321Z,6.38
2023-02-17T23:19:11.198Z,6.38
2023-02-17T23:21:42.379Z,6.34
2023-02-17T23:24:09.842Z,6.29
2023-02-17T23:26:37.220Z,6.31
2023-02-17T23:29:04.725Z,6.27
2023-02-17T23:31:32.203Z,6.32
2023-02-17T23:33:59.831Z,6.32
2023-02-17T23:36:27.374Z,6.32
2023-02-17T23:38:56.060Z,6.20
2023-02-17T23:41:23.502Z,6.20
2023-02-17T23:43:51.044Z,6.20
2023-02-17T23:46:18.772Z,6.28
2023-02-17T23:48:46.277Z,6.22
2023-02-17T23:51:16.848Z,6.20
2023-02-17T23:53:44.856Z,6.26
2023-02-17T23:56:31.820Z,6.24
2023-02-17T23:58:59.917Z,6.12
